Yukon, Pennsylvania
Current Conditions -  °F | °C
As of 6:45 AM on Sunday 25 Jan 2015 (Local Time) from KLBE Reporting Station
Haze Haze  
Wind Chill: 24°   Ceiling: 800
Heat Index: 32°   Visibility: 5mi
Dew Point: 32°   Wind: 9mph
Humidity: 100%   Direction: 230°SW
Pressure: 29.77"   Gusts: NA
Location:  40.21°N, 79.68°W
Report Text: KLBE 251145Z 23008KT 5SM BR OVC008 00/00 A2977
Loading
Personal Weather Stations






























Interactive Weather Map New forecast layout! Learn more

10-Day Weather Forecast

Advertisements
Track Severe Weather on mobile